createdAt,value
2023-10-24T00:02:18.387Z,98292.77
2023-10-24T00:04:45.807Z,98291.98
2023-10-24T00:07:13.276Z,98288.23
2023-10-24T00:09:40.587Z,98283.06
2023-10-24T00:12:08.180Z,98285.51
2023-10-24T00:14:35.581Z,98282.35
2023-10-24T00:17:03.146Z,98280.06
2023-10-24T00:19:30.834Z,98283.92
2023-10-24T00:21:58.227Z,98284.21
2023-10-24T00:24:27.290Z,98291.41
2023-10-24T00:26:56.581Z,98288.47
2023-10-24T00:29:24.058Z,98283.83
2023-10-24T00:31:51.587Z,98287.01
2023-10-24T00:34:19.205Z,98285.39
2023-10-24T00:36:47.057Z,98283.40
2023-10-24T00:39:14.359Z,98274.85
2023-10-24T00:41:41.814Z,98279.04
2023-10-24T00:44:09.697Z,98274.91
2023-10-24T00:46:37.831Z,98278.02
2023-10-24T00:49:05.360Z,98281.30
2023-10-24T00:51:33.734Z,98273.75
2023-10-24T00:54:03.221Z,98275.85
2023-10-24T00:56:30.845Z,98270.34
2023-10-24T00:58:58.646Z,98271.66
2023-10-24T01:01:26.105Z,98270.39
2023-10-24T01:03:53.688Z,98273.13
2023-10-24T01:06:21.248Z,98268.80
2023-10-24T01:08:48.715Z,98277.91
2023-10-24T01:11:16.141Z,98281.10
2023-10-24T01:13:43.614Z,98277.27
2023-10-24T01:16:11.191Z,98275.93
2023-10-24T01:18:38.701Z,98274.86
2023-10-24T01:21:06.649Z,98274.19
2023-10-24T01:23:34.058Z,98275.94
2023-10-24T01:26:01.512Z,98270.41
2023-10-24T01:28:29.594Z,98270.33
2023-10-24T01:30:57.074Z,98267.79
2023-10-24T01:33:24.721Z,98264.98
2023-10-24T01:35:52.312Z,98267.02
2023-10-24T01:38:20.091Z,98262.96
2023-10-24T01:40:47.702Z,98266.98
2023-10-24T01:43:15.221Z,98270.13
2023-10-24T01:45:42.675Z,98274.90
2023-10-24T01:48:10.033Z,98271.10
2023-10-24T01:50:37.432Z,98261.97
2023-10-24T01:53:04.839Z,98259.85
2023-10-24T01:55:32.235Z,98261.73
2023-10-24T01:57:59.630Z,98255.90
2023-10-24T02:00:27.167Z,98249.05
2023-10-24T02:02:55.413Z,98249.63
2023-10-24T02:05:23.095Z,98254.44
2023-10-24T02:07:50.554Z,98248.96
2023-10-24T02:10:18.070Z,98242.62
2023-10-24T02:12:46.828Z,98244.70
2023-10-24T02:15:14.144Z,98246.46
2023-10-24T02:17:44.450Z,98244.02
2023-10-24T02:20:12.064Z,98247.00
2023-10-24T02:22:39.790Z,98254.33
2023-10-24T02:25:09.676Z,98256.00
2023-10-24T02:27:37.716Z,98252.40
2023-10-24T02:30:06.280Z,98247.67
2023-10-24T02:32:33.911Z,98250.73
2023-10-24T02:35:01.281Z,98248.46
2023-10-24T02:37:28.722Z,98250.17
2023-10-24T02:39:56.284Z,98251.59
2023-10-24T02:42:23.585Z,98247.25
2023-10-24T02:44:51.044Z,98241.75
2023-10-24T02:47:18.465Z,98237.89
2023-10-24T02:49:45.981Z,98234.27
2023-10-24T02:52:13.519Z,98233.42
2023-10-24T02:54:40.971Z,98237.40
2023-10-24T02:57:08.729Z,98241.92
2023-10-24T02:59:36.024Z,98241.77
2023-10-24T03:02:03.573Z,98244.75
2023-10-24T03:04:30.960Z,98247.74
2023-10-24T03:06:58.380Z,98248.65
2023-10-24T03:09:25.914Z,98242.75
2023-10-24T03:11:53.311Z,98243.13
2023-10-24T03:14:20.719Z,98240.13
2023-10-24T03:16:50.221Z,98233.04
2023-10-24T03:19:17.878Z,98227.96
2023-10-24T03:21:45.777Z,98227.40
2023-10-24T03:24:13.192Z,98225.64
2023-10-24T03:26:40.557Z,98223.20
2023-10-24T03:29:07.905Z,98222.10
2023-10-24T03:31:35.279Z,98222.14
2023-10-24T03:34:04.257Z,98217.82
2023-10-24T03:36:31.640Z,98219.52
2023-10-24T03:38:58.963Z,98224.55
2023-10-24T03:41:26.333Z,98225.83
2023-10-24T03:43:53.759Z,98219.39
2023-10-24T03:46:21.143Z,98220.02
2023-10-24T03:48:48.662Z,98228.92
2023-10-24T03:51:16.020Z,98231.39
2023-10-24T03:53:43.379Z,98233.46
2023-10-24T03:56:10.700Z,98235.94
2023-10-24T03:58:38.034Z,98229.75
2023-10-24T04:01:05.911Z,98227.20
2023-10-24T04:03:33.599Z,98222.33
2023-10-24T04:06:01.167Z,98218.75
2023-10-24T04:08:28.492Z,98224.33
2023-10-24T04:10:55.810Z,98227.65
2023-10-24T04:13:23.338Z,98231.15
2023-10-24T04:15:53.503Z,98237.75
2023-10-24T04:18:20.880Z,98234.21
2023-10-24T04:20:48.424Z,98228.60
2023-10-24T04:23:16.273Z,98221.59
2023-10-24T04:25:43.882Z,98210.79
2023-10-24T04:28:11.347Z,98205.50
2023-10-24T04:30:42.327Z,98206.59
2023-10-24T04:33:10.412Z,98205.15
2023-10-24T04:35:42.766Z,98205.31
2023-10-24T04:38:13.231Z,98213.46
2023-10-24T04:40:40.837Z,98220.65
2023-10-24T04:43:08.784Z,98222.58
2023-10-24T04:45:36.881Z,98219.20
2023-10-24T04:48:05.159Z,98213.93
2023-10-24T04:50:32.863Z,98216.73
2023-10-24T04:53:00.308Z,98209.81
2023-10-24T04:55:29.147Z,98209.64
2023-10-24T04:57:56.730Z,98214.30
2023-10-24T05:00:26.005Z,98218.88
2023-10-24T05:02:53.757Z,98227.29
2023-10-24T05:05:21.471Z,98231.98
2023-10-24T05:07:50.312Z,98226.38
2023-10-24T05:10:17.950Z,98225.17
2023-10-24T05:12:45.361Z,98214.45
2023-10-24T05:15:12.910Z,98207.91
2023-10-24T05:17:40.647Z,98204.85
2023-10-24T05:20:08.908Z,98211.16
2023-10-24T05:22:36.497Z,98209.02
2023-10-24T05:25:04.210Z,98209.71
2023-10-24T05:27:33.240Z,98205.98
2023-10-24T05:30:01.042Z,98197.16
2023-10-24T05:32:28.668Z,98193.90
2023-10-24T05:34:56.362Z,98198.72
2023-10-24T05:37:23.929Z,98201.98
2023-10-24T05:39:51.391Z,98205.35
2023-10-24T05:42:18.733Z,98209.46
2023-10-24T05:44:46.144Z,98210.44
2023-10-24T05:47:13.517Z,98214.27
2023-10-24T05:49:40.974Z,98217.33
2023-10-24T05:52:08.384Z,98209.61
2023-10-24T05:54:37.328Z,98200.71
2023-10-24T05:57:05.081Z,98195.84
2023-10-24T05:59:34.248Z,98194.38
2023-10-24T06:02:01.972Z,98199.44
2023-10-24T06:04:29.405Z,98207.00
2023-10-24T06:06:56.776Z,98211.23
2023-10-24T06:09:24.103Z,98205.80
2023-10-24T06:11:53.622Z,98204.58
2023-10-24T06:14:21.077Z,98214.44
2023-10-24T06:16:48.457Z,98214.41
2023-10-24T06:19:15.965Z,98205.15
2023-10-24T06:21:43.285Z,98207.31
2023-10-24T06:24:10.695Z,98210.17
2023-10-24T06:26:38.080Z,98215.11
2023-10-24T06:29:05.394Z,98216.66
2023-10-24T06:31:32.890Z,98215.04
2023-10-24T06:34:09.924Z,98212.57
2023-10-24T06:36:37.428Z,98211.54
2023-10-24T06:39:05.283Z,98214.77
2023-10-24T06:41:33.150Z,98213.06
2023-10-24T06:44:00.545Z,98212.33
2023-10-24T06:46:28.154Z,98206.28
2023-10-24T06:48:55.635Z,98197.86
2023-10-24T06:51:23.369Z,98191.13
2023-10-24T06:53:50.778Z,98198.29
2023-10-24T06:56:20.816Z,98195.71
2023-10-24T06:58:49.545Z,98194.04
2023-10-24T07:01:16.958Z,98199.34
2023-10-24T07:03:44.386Z,98196.04
2023-10-24T07:06:14.664Z,98194.17
2023-10-24T07:08:43.499Z,98180.11
2023-10-24T07:11:10.895Z,98163.41
2023-10-24T07:13:38.462Z,98156.95
2023-10-24T07:16:16.481Z,98166.30
2023-10-24T07:18:44.275Z,98170.81
2023-10-24T07:21:12.896Z,98183.77
2023-10-24T07:23:40.270Z,98205.35
2023-10-24T07:26:07.691Z,98207.88
2023-10-24T07:28:35.245Z,98192.65
2023-10-24T07:31:03.506Z,98181.34
2023-10-24T07:33:30.943Z,98170.81
2023-10-24T07:36:06.940Z,98167.31
2023-10-24T07:38:34.457Z,98164.70
2023-10-24T07:41:01.904Z,98167.02
2023-10-24T07:43:29.362Z,98165.64
2023-10-24T07:45:56.916Z,98165.20
2023-10-24T07:48:25.265Z,98174.23
2023-10-24T07:50:57.274Z,98173.08
2023-10-24T07:53:25.684Z,98167.88
2023-10-24T08:44:46.224Z,98133.23
2023-10-24T08:47:13.311Z,98131.23
2023-10-24T08:49:40.297Z,98121.79
2023-10-24T08:52:22.534Z,98117.20
2023-10-24T08:54:54.277Z,98118.78
2023-10-24T08:57:27.229Z,98118.73
2023-10-24T08:59:55.520Z,98115.27
2023-10-24T09:02:22.346Z,98112.98
2023-10-24T09:04:51.187Z,98109.45
2023-10-24T09:07:17.990Z,98106.27
2023-10-24T09:09:44.907Z,98106.65
2023-10-24T09:12:15.268Z,98104.10
2023-10-24T09:15:16.958Z,98104.64
2023-10-24T09:18:16.426Z,98107.84
2023-10-24T09:20:46.811Z,98103.88
2023-10-24T09:23:24.039Z,98094.62
2023-10-24T09:25:50.808Z,98093.27
2023-10-24T09:28:18.867Z,98086.32
2023-10-24T09:30:45.810Z,98073.27
2023-10-24T09:33:12.753Z,98063.94
2023-10-24T09:35:40.174Z,98068.38
2023-10-24T09:38:10.149Z,98068.08
2023-10-24T09:40:38.143Z,98055.85
2023-10-24T09:43:13.655Z,98042.97
2023-10-24T09:45:41.490Z,98044.83
2023-10-24T09:48:09.326Z,98047.38
2023-10-24T09:50:40.427Z,98050.05
2023-10-24T09:53:07.571Z,98047.29
2023-10-24T09:55:35.136Z,98041.88
2023-10-24T09:58:03.778Z,98035.52
2023-10-24T10:00:32.034Z,98029.16
2023-10-24T10:03:01.053Z,98031.01
2023-10-24T10:05:30.451Z,98027.48
2023-10-24T10:07:59.185Z,98022.31
2023-10-24T10:10:26.192Z,98011.14
2023-10-24T10:12:56.458Z,98006.48
2023-10-24T10:15:38.227Z,98004.84
2023-10-24T10:18:13.133Z,97999.92
2023-10-24T10:21:25.711Z,97999.30
2023-10-24T10:24:20.697Z,97998.65
2023-10-24T10:27:18.844Z,98003.77
2023-10-24T10:30:24.458Z,98004.12
2023-10-24T10:33:12.862Z,98001.69
2023-10-24T10:35:48.686Z,97994.70
2023-10-24T10:38:48.050Z,97985.40
2023-10-24T10:41:22.062Z,97984.34
2023-10-24T10:43:49.126Z,97985.08
2023-10-24T10:46:17.093Z,97978.42
2023-10-24T10:48:57.704Z,97969.84
2023-10-24T10:54:53.496Z,97969.80
2023-10-24T10:57:30.367Z,97968.98
2023-10-24T11:00:05.084Z,97964.58
2023-10-24T11:02:51.480Z,97968.05
2023-10-24T11:05:45.312Z,97964.84
2023-10-24T11:08:19.351Z,97956.94
2023-10-24T11:11:08.242Z,97950.02
2023-10-24T11:13:44.209Z,97946.92
2023-10-24T11:16:25.434Z,97942.25
2023-10-24T11:18:57.332Z,97940.33
2023-10-24T11:21:24.127Z,97933.42
2023-10-24T11:23:51.604Z,97928.25
2023-10-24T11:26:18.461Z,97920.58
2023-10-24T11:28:45.386Z,97914.50
2023-10-24T11:31:38.613Z,97911.98
2023-10-24T11:34:05.331Z,97912.50
2023-10-24T11:36:32.359Z,97909.77
2023-10-24T11:39:04.779Z,97906.79
2023-10-24T11:41:31.737Z,97908.87
2023-10-24T11:43:59.080Z,97910.21
2023-10-24T11:46:25.885Z,97903.22
2023-10-24T11:48:52.822Z,97906.73
2023-10-24T11:51:20.045Z,97905.49
2023-10-24T11:53:46.975Z,97905.98
2023-10-24T11:56:13.993Z,97901.71
2023-10-24T11:58:42.170Z,97888.69
2023-10-24T12:01:08.913Z,97873.93
2023-10-24T12:03:47.680Z,97871.23
2023-10-24T12:06:20.116Z,97871.45
2023-10-24T12:08:48.673Z,97870.39
2023-10-24T12:11:16.132Z,97873.52
2023-10-24T12:13:45.967Z,97871.02
2023-10-24T12:16:15.796Z,97868.77
2023-10-24T12:18:44.473Z,97863.09
2023-10-24T12:21:17.429Z,97866.77
2023-10-24T12:23:46.344Z,97863.85
2023-10-24T12:26:14.510Z,97860.70
2023-10-24T12:28:49.172Z,97865.85
2023-10-24T12:31:16.221Z,97870.19
2023-10-24T12:33:43.362Z,97867.16
2023-10-24T12:36:10.463Z,97856.93
2023-10-24T12:38:38.266Z,97841.63
2023-10-24T12:41:05.217Z,97827.23
2023-10-24T12:43:32.625Z,97827.23
2023-10-24T12:45:59.673Z,97832.93
2023-10-24T12:48:27.446Z,97846.97
2023-10-24T12:50:54.289Z,97846.02
2023-10-24T12:53:23.778Z,97842.89
2023-10-24T12:55:51.198Z,97837.52
2023-10-24T12:58:18.146Z,97838.48
2023-10-24T13:00:46.348Z,97835.39
2023-10-24T13:03:17.795Z,97830.89
2023-10-24T13:05:48.337Z,97821.27
2023-10-24T13:08:15.329Z,97823.44
2023-10-24T13:10:42.289Z,97823.83
2023-10-24T13:13:09.109Z,97821.73
2023-10-24T13:15:36.740Z,97825.15
2023-10-24T13:18:04.381Z,97824.34
2023-10-24T13:20:31.373Z,97819.23
2023-10-24T13:22:58.120Z,97814.94
2023-10-24T13:25:26.705Z,97818.09
2023-10-24T13:27:56.106Z,97818.20
2023-10-24T13:30:37.816Z,97815.42
2023-10-24T13:33:10.119Z,97815.77
2023-10-24T13:38:07.494Z,97823.35
2023-10-24T13:40:34.572Z,97821.61
2023-10-24T13:43:03.226Z,97820.69
2023-10-24T13:45:30.277Z,97822.03
2023-10-24T13:47:57.325Z,97816.38
2023-10-24T13:50:24.140Z,97809.23
2023-10-24T13:52:51.926Z,97806.79
2023-10-24T13:55:18.908Z,97805.31
2023-10-24T13:57:48.115Z,97796.97
2023-10-24T14:00:15.567Z,97792.04
2023-10-24T14:02:42.991Z,97793.93
2023-10-24T14:05:10.218Z,97796.70
2023-10-24T14:19:32.075Z,97789.13
2023-10-24T14:22:00.154Z,97784.54
2023-10-24T14:24:28.037Z,97776.14
2023-10-24T14:26:55.719Z,97783.08
2023-10-24T14:29:25.732Z,97779.24
2023-10-24T14:31:53.350Z,97773.95
2023-10-24T14:34:21.398Z,97776.55
2023-10-24T14:36:49.150Z,97775.19
2023-10-24T14:39:16.869Z,97769.49
2023-10-24T14:41:44.428Z,97764.07
2023-10-24T14:44:12.057Z,97763.15
2023-10-24T14:46:39.704Z,97756.97
2023-10-24T14:49:07.847Z,97749.75
2023-10-24T14:51:35.601Z,97740.86
2023-10-24T14:54:03.760Z,97734.06
2023-10-24T14:56:31.693Z,97732.46
2023-10-24T14:58:59.211Z,97733.55
2023-10-24T15:01:27.684Z,97739.69
2023-10-24T15:03:55.760Z,97748.21
2023-10-24T15:06:23.798Z,97758.74
2023-10-24T15:08:52.633Z,97760.00
2023-10-24T15:11:20.190Z,97749.14
2023-10-24T15:13:47.677Z,97747.45
2023-10-24T15:16:15.220Z,97752.55
2023-10-24T15:18:42.923Z,97751.73
2023-10-24T15:21:10.582Z,97754.81
2023-10-24T15:23:38.480Z,97759.91
2023-10-24T15:26:06.219Z,97757.36
2023-10-24T15:28:33.716Z,97757.27
2023-10-24T15:31:01.325Z,97739.90
2023-10-24T15:33:28.841Z,97731.41
2023-10-24T15:35:59.439Z,97724.36
2023-10-24T15:41:58.640Z,97717.18
2023-10-24T15:44:26.334Z,97714.15
2023-10-24T15:46:56.198Z,97708.13
2023-10-24T15:49:24.132Z,97700.30
2023-10-24T15:51:54.300Z,97691.30
2023-10-24T15:54:24.177Z,97688.36
2023-10-24T15:56:51.741Z,97681.80
2023-10-24T15:59:19.328Z,97689.89
2023-10-24T16:01:48.839Z,97694.37
2023-10-24T16:04:17.296Z,97694.91
2023-10-24T16:06:45.195Z,97692.89
2023-10-24T16:15:15.777Z,97690.11
2023-10-24T16:17:43.579Z,97688.86
2023-10-24T16:20:11.562Z,97684.25
2023-10-24T16:22:39.805Z,97684.61
2023-10-24T16:25:08.075Z,97685.16
2023-10-24T16:27:35.560Z,97685.16
2023-10-24T16:30:03.246Z,97673.84
2023-10-24T16:32:30.969Z,97673.30
2023-10-24T16:34:59.988Z,97670.59
2023-10-24T16:37:27.902Z,97661.02
2023-10-24T16:39:55.814Z,97659.19
2023-10-24T16:42:23.518Z,97665.09
2023-10-24T16:44:50.926Z,97670.81
2023-10-24T16:47:19.016Z,97665.34
2023-10-24T16:49:50.345Z,97662.29
2023-10-24T16:52:18.337Z,97651.71
2023-10-24T16:54:46.841Z,97643.58
2023-10-24T16:57:14.570Z,97647.10
2023-10-24T16:59:42.039Z,97641.12
2023-10-24T17:02:09.783Z,97637.07
2023-10-24T17:04:37.672Z,97629.62
2023-10-24T17:07:05.232Z,97628.83
2023-10-24T17:09:35.230Z,97623.08
2023-10-24T17:16:18.396Z,97617.18
2023-10-24T17:18:46.050Z,97619.23
2023-10-24T17:21:13.897Z,97622.33
2023-10-24T17:23:41.721Z,97612.04
2023-10-24T17:26:09.648Z,97601.35
2023-10-24T17:28:37.482Z,97595.77
2023-10-24T17:31:05.169Z,97593.81
2023-10-24T17:33:34.110Z,97593.82
2023-10-24T17:36:04.177Z,97588.27
2023-10-24T17:38:35.067Z,97585.98
2023-10-24T17:41:04.762Z,97579.73
2023-10-24T17:43:33.060Z,97588.36
2023-10-24T17:46:05.309Z,97592.38
2023-10-24T17:48:33.485Z,97585.82
2023-10-24T17:51:06.977Z,97593.26
2023-10-24T17:53:34.872Z,97591.13
2023-10-24T17:56:02.932Z,97583.16
2023-10-24T17:58:30.606Z,97580.67
2023-10-24T18:00:58.148Z,97580.13
2023-10-24T18:03:26.012Z,97575.59
2023-10-24T18:05:53.633Z,97585.27
2023-10-24T18:08:21.300Z,97580.52
2023-10-24T18:10:49.025Z,97586.38
2023-10-24T18:13:16.563Z,97574.58
2023-10-24T18:15:44.654Z,97572.48
2023-10-24T18:18:15.645Z,97577.45
2023-10-24T18:20:43.516Z,97565.86
2023-10-24T18:23:16.681Z,97560.02
2023-10-24T18:25:54.723Z,97545.56
2023-10-24T18:28:22.947Z,97538.26
2023-10-24T18:30:50.584Z,97540.95
2023-10-24T18:33:18.140Z,97534.66
2023-10-24T18:35:48.255Z,97529.54
2023-10-24T18:38:18.287Z,97529.14
2023-10-24T18:40:49.673Z,97531.26
2023-10-24T18:43:17.156Z,97526.61
2023-10-24T18:45:44.682Z,97518.95
2023-10-24T19:01:46.471Z,97504.17
2023-10-24T19:04:14.374Z,97499.90
2023-10-24T19:06:45.129Z,97502.58
2023-10-24T19:09:12.811Z,97502.27
2023-10-24T19:11:40.727Z,97504.34
2023-10-24T19:14:11.373Z,97504.89
2023-10-24T19:16:40.450Z,97509.25
2023-10-24T19:19:10.856Z,97510.45
2023-10-24T19:21:38.864Z,97502.58
2023-10-24T19:24:06.912Z,97497.70
2023-10-24T19:26:34.456Z,97488.54
2023-10-24T19:29:02.578Z,97485.82
2023-10-24T19:31:33.527Z,97490.10
2023-10-24T19:34:01.460Z,97492.46
2023-10-24T19:36:30.273Z,97486.54
2023-10-24T19:38:58.006Z,97487.22
2023-10-24T19:41:26.071Z,97482.83
2023-10-24T19:43:54.041Z,97476.55
2023-10-24T19:46:22.233Z,97494.25
2023-10-24T19:48:49.911Z,97480.42
2023-10-24T19:51:17.655Z,97471.60
2023-10-24T19:53:45.875Z,97459.70
2023-10-24T19:56:13.497Z,97463.22
2023-10-24T19:58:43.952Z,97466.20
2023-10-24T20:01:12.176Z,97460.36
2023-10-24T20:03:40.200Z,97455.36
2023-10-24T20:06:10.112Z,97450.59
2023-10-24T20:08:43.213Z,97443.93
2023-10-24T20:12:34.652Z,97438.69
2023-10-24T20:13:58.901Z,97431.65
2023-10-24T20:16:33.811Z,97421.48
2023-10-24T20:19:02.817Z,97417.14
2023-10-24T20:21:30.626Z,97407.94
2023-10-24T20:23:58.447Z,97405.83
2023-10-24T20:26:26.627Z,97411.08
2023-10-24T20:31:12.808Z,97412.77
2023-10-24T20:33:40.392Z,97410.06
2023-10-24T20:36:09.100Z,97404.80
2023-10-24T20:38:36.884Z,97405.40
2023-10-24T20:41:04.457Z,97400.14
2023-10-24T20:43:33.701Z,97395.70
2023-10-24T20:46:02.617Z,97391.24
2023-10-24T20:51:34.323Z,97386.04
2023-10-24T20:54:01.996Z,97378.74
2023-10-24T20:56:29.526Z,97375.67
2023-10-24T20:58:56.950Z,97379.73
2023-10-24T21:01:27.266Z,97373.60
2023-10-24T21:03:58.058Z,97371.23
2023-10-24T21:13:06.520Z,97389.42
2023-10-24T21:15:36.218Z,97393.22
2023-10-24T21:18:06.493Z,97397.61
2023-10-24T21:20:37.597Z,97409.91
2023-10-24T21:23:07.760Z,97407.52
2023-10-24T21:25:40.090Z,97404.70
2023-10-24T21:28:07.947Z,97405.77
2023-10-24T21:30:35.479Z,97410.02
2023-10-24T21:33:03.241Z,97395.12
2023-10-24T21:35:30.790Z,97395.33
2023-10-24T21:38:02.567Z,97397.48
2023-10-24T21:40:30.716Z,97386.48
2023-10-24T21:42:58.632Z,97382.80
2023-10-24T21:45:26.737Z,97373.52
2023-10-24T21:47:54.666Z,97363.77
2023-10-24T21:50:26.326Z,97365.48
2023-10-24T21:52:53.940Z,97362.56
2023-10-24T21:55:21.532Z,97355.75
2023-10-24T21:57:54.070Z,97344.11
2023-10-24T22:00:53.753Z,97338.42
2023-10-24T22:03:21.579Z,97345.03
2023-10-24T22:05:49.469Z,97340.59
2023-10-24T22:08:17.702Z,97342.92
2023-10-24T22:10:45.291Z,97348.38
2023-10-24T22:13:12.824Z,97347.35
2023-10-24T22:15:40.791Z,97350.07
2023-10-24T22:18:08.322Z,97358.82
2023-10-24T22:20:35.776Z,97365.70
2023-10-24T22:23:05.583Z,97367.93
2023-10-24T22:25:36.517Z,97366.16
2023-10-24T22:28:06.049Z,97359.56
2023-10-24T22:30:35.005Z,97362.21
2023-10-24T22:33:02.512Z,97353.99
2023-10-24T22:35:29.986Z,97349.61
2023-10-24T22:37:57.385Z,97340.90
2023-10-24T22:40:24.884Z,97339.87
2023-10-24T22:42:52.447Z,97336.02
2023-10-24T22:45:19.993Z,97336.33
2023-10-24T22:47:49.237Z,97338.33
2023-10-24T22:50:17.051Z,97334.52
2023-10-24T22:52:44.970Z,97333.65
2023-10-24T22:55:14.956Z,97338.11
2023-10-24T22:57:42.674Z,97339.45
2023-10-24T23:00:11.300Z,97335.41
2023-10-24T23:02:38.767Z,97329.73
2023-10-24T23:05:06.838Z,97316.38
2023-10-24T23:07:35.504Z,97305.45
2023-10-24T23:10:09.782Z,97295.75
2023-10-24T23:12:37.415Z,97277.29
2023-10-24T23:15:05.333Z,97265.55
2023-10-24T23:17:37.689Z,97272.52
2023-10-24T23:20:05.906Z,97277.30
2023-10-24T23:22:33.428Z,97278.65
2023-10-24T23:25:01.021Z,97285.75
2023-10-24T23:27:28.716Z,97293.05
2023-10-24T23:29:58.566Z,97291.96
2023-10-24T23:32:57.083Z,97299.48
2023-10-24T23:38:44.444Z,97307.23
2023-10-24T23:41:11.905Z,97308.10
2023-10-24T23:43:39.323Z,97306.95
2023-10-24T23:46:06.801Z,97303.92
2023-10-24T23:48:34.456Z,97305.49
2023-10-24T23:51:04.763Z,97299.43
2023-10-24T23:53:32.185Z,97292.88
2023-10-24T23:56:02.699Z,97291.27
2023-10-24T23:58:30.855Z,97285.66
